createdAt,value
2023-06-17T00:01:16.152Z,96205.56
2023-06-17T00:03:44.493Z,96207.50
2023-06-17T00:06:11.908Z,96206.00
2023-06-17T00:08:39.043Z,96214.88
2023-06-17T00:11:06.346Z,96216.06
2023-06-17T00:13:33.890Z,96209.84
2023-06-17T00:16:01.928Z,96200.47
2023-06-17T00:18:29.926Z,96196.22
2023-06-17T00:20:59.185Z,96212.59
2023-06-17T00:23:26.767Z,96207.31
2023-06-17T00:25:53.929Z,96207.75
2023-06-17T00:28:21.101Z,96203.00
2023-06-17T00:30:48.911Z,96205.31
2023-06-17T00:33:16.720Z,96204.28
2023-06-17T00:35:45.245Z,96203.63
2023-06-17T00:38:12.552Z,96213.28
2023-06-17T00:40:39.654Z,96212.09
2023-06-17T00:43:06.761Z,96212.16
2023-06-17T00:45:40.505Z,96209.03
2023-06-17T00:48:10.023Z,96218.41
2023-06-17T00:50:38.176Z,96219.63
2023-06-17T00:53:06.654Z,96232.44
2023-06-17T00:55:35.050Z,96214.16
2023-06-17T00:58:02.598Z,96210.84
2023-06-17T01:00:29.636Z,96215.13
2023-06-17T01:02:57.897Z,96214.53
2023-06-17T01:05:26.375Z,96212.09
2023-06-17T01:07:59.833Z,96216.22
2023-06-17T01:10:39.884Z,96213.38
2023-06-17T01:13:07.704Z,96213.97
2023-06-17T01:15:38.034Z,96216.59
2023-06-17T01:18:08.355Z,96213.56
2023-06-17T01:20:37.392Z,96226.19
2023-06-17T01:23:06.733Z,96228.06
2023-06-17T01:25:35.801Z,96225.19
2023-06-17T01:28:21.269Z,96223.03
2023-06-17T01:30:49.383Z,96215.66
2023-06-17T01:33:17.152Z,96217.31
2023-06-17T01:35:56.086Z,96231.72
2023-06-17T01:38:44.718Z,96230.63
2023-06-17T01:41:18.377Z,96210.19
2023-06-17T01:43:46.624Z,96229.41
2023-06-17T01:46:14.602Z,96218.91
2023-06-17T01:48:42.694Z,96219.38
2023-06-17T01:51:10.043Z,96210.38
2023-06-17T01:53:37.033Z,96211.66
2023-06-17T01:56:04.239Z,96207.75
2023-06-17T01:58:31.229Z,96207.50
2023-06-17T02:00:58.932Z,96222.09
2023-06-17T02:03:26.020Z,96208.53
2023-06-17T02:05:53.144Z,96213.22
2023-06-17T02:08:20.291Z,96211.28
2023-06-17T02:10:47.284Z,96163.34
2023-06-17T02:13:14.698Z,96195.69
2023-06-17T02:15:43.977Z,96198.97
2023-06-17T02:18:13.748Z,96207.66
2023-06-17T02:20:42.539Z,96202.84
2023-06-17T02:23:09.577Z,96203.22
2023-06-17T02:25:40.775Z,96202.69
2023-06-17T02:28:08.159Z,96181.06
2023-06-17T02:30:35.590Z,96219.69
2023-06-17T02:33:02.748Z,96195.75
2023-06-17T02:35:30.265Z,96193.06
2023-06-17T02:37:58.357Z,96183.94
2023-06-17T02:40:25.397Z,96180.38
2023-06-17T02:42:53.242Z,96179.28
2023-06-17T02:45:20.391Z,96180.13
2023-06-17T02:47:48.609Z,96179.28
2023-06-17T02:50:15.989Z,96164.00
2023-06-17T02:52:43.036Z,96172.78
2023-06-17T02:55:10.928Z,96161.22
2023-06-17T02:57:38.351Z,96173.34
2023-06-17T03:00:07.489Z,96152.47
2023-06-17T03:02:34.552Z,96160.91
2023-06-17T03:05:01.709Z,96130.13
2023-06-17T03:07:37.544Z,96177.72
2023-06-17T03:10:04.911Z,96183.94
2023-06-17T03:12:37.723Z,96182.31
2023-06-17T03:15:05.869Z,96172.38
2023-06-17T03:17:33.028Z,96175.13
2023-06-17T03:20:01.357Z,96166.53
2023-06-17T03:22:30.903Z,96169.38
2023-06-17T03:24:57.925Z,96165.22
2023-06-17T03:27:25.274Z,96184.63
2023-06-17T03:29:52.758Z,96188.28
2023-06-17T03:32:19.725Z,96188.69
2023-06-17T03:34:47.501Z,96185.72
2023-06-17T03:37:15.521Z,96177.44
2023-06-17T03:39:43.812Z,96196.69
2023-06-17T03:42:16.053Z,96178.69
2023-06-17T03:44:43.266Z,96192.81
2023-06-17T03:47:10.930Z,96196.16
2023-06-17T03:49:38.859Z,96149.28
2023-06-17T03:52:06.889Z,96219.63
2023-06-17T03:54:33.994Z,96220.00
2023-06-17T03:57:01.243Z,96206.44
2023-06-17T03:59:29.541Z,96222.63
2023-06-17T04:01:56.717Z,96212.44
2023-06-17T04:04:23.962Z,96228.50
2023-06-17T04:06:51.652Z,96227.97
2023-06-17T04:09:20.117Z,96226.81
2023-06-17T04:11:50.952Z,96229.31
2023-06-17T04:14:18.114Z,96221.59
2023-06-17T04:16:50.454Z,96212.78
2023-06-17T04:19:18.875Z,96225.59
2023-06-17T04:21:46.598Z,96237.06
2023-06-17T04:24:13.844Z,96234.97
2023-06-17T04:26:44.315Z,96239.50
2023-06-17T04:29:12.027Z,96239.13
2023-06-17T04:31:41.650Z,96240.94
2023-06-17T04:34:13.808Z,96253.59
2023-06-17T04:36:41.057Z,96252.47
2023-06-17T04:39:11.659Z,96256.03
2023-06-17T04:41:39.293Z,96256.81
2023-06-17T04:44:06.469Z,96253.66
2023-06-17T04:46:34.799Z,96250.63
2023-06-17T04:49:03.800Z,96248.59
2023-06-17T04:51:31.022Z,96236.94
2023-06-17T04:53:58.077Z,96253.88
2023-06-17T04:56:28.060Z,96244.50
2023-06-17T04:58:55.313Z,96225.06
2023-06-17T05:01:23.434Z,96241.09
2023-06-17T05:03:51.799Z,96240.72
2023-06-17T05:06:19.975Z,96251.50
2023-06-17T05:08:49.600Z,96239.56
2023-06-17T05:11:18.759Z,96248.31
2023-06-17T05:13:46.677Z,96238.88
2023-06-17T05:16:13.701Z,96252.59
2023-06-17T05:18:42.270Z,96246.66
2023-06-17T05:21:09.382Z,96225.91
2023-06-17T05:23:37.055Z,96255.81
2023-06-17T05:26:05.496Z,96255.59
2023-06-17T05:28:33.066Z,96260.19
2023-06-17T05:31:00.297Z,96258.91
2023-06-17T05:33:27.353Z,96263.56
2023-06-17T05:35:55.694Z,96269.88
2023-06-17T05:38:22.727Z,96268.66
2023-06-17T05:40:49.929Z,96274.19
2023-06-17T05:43:16.942Z,96281.38
2023-06-17T05:45:44.152Z,96276.25
2023-06-17T05:48:14.638Z,96295.88
2023-06-17T05:50:41.663Z,96285.72
2023-06-17T05:53:08.880Z,96283.16
2023-06-17T05:55:35.948Z,96281.19
2023-06-17T05:58:03.458Z,96289.50
2023-06-17T06:00:34.456Z,96252.19
2023-06-17T06:03:01.622Z,96299.69
2023-06-17T06:05:28.754Z,96301.91
2023-06-17T06:07:55.977Z,96299.41
2023-06-17T06:10:23.388Z,96310.91
2023-06-17T06:12:55.992Z,96309.34
2023-06-17T06:15:24.752Z,96314.22
2023-06-17T06:17:51.831Z,96318.19
2023-06-17T06:20:19.632Z,96311.78
2023-06-17T06:22:47.068Z,96300.28
2023-06-17T06:25:14.102Z,96315.22
2023-06-17T06:27:41.142Z,96317.16
2023-06-17T06:30:09.557Z,96316.44
2023-06-17T06:32:40.553Z,96317.16
2023-06-17T06:35:07.918Z,96277.94
2023-06-17T06:37:35.240Z,96322.13
2023-06-17T06:40:02.705Z,96282.34
2023-06-17T06:42:32.789Z,96323.19
2023-06-17T06:45:16.814Z,96322.25
2023-06-17T06:47:45.541Z,96315.84
2023-06-17T06:50:12.944Z,96312.13
2023-06-17T06:52:40.687Z,96309.66
2023-06-17T06:55:08.374Z,96300.09
2023-06-17T06:57:37.172Z,96309.19
2023-06-17T07:00:10.204Z,96317.03
2023-06-17T07:02:39.238Z,96310.94
2023-06-17T07:05:07.077Z,96309.56
2023-06-17T07:07:42.806Z,96312.56
2023-06-17T07:10:10.479Z,96305.28
2023-06-17T07:12:37.916Z,96302.41
2023-06-17T07:15:06.648Z,96301.03
2023-06-17T07:17:34.080Z,96307.91
2023-06-17T07:20:04.185Z,96292.09
2023-06-17T07:22:31.590Z,96299.72
2023-06-17T07:24:58.801Z,96256.50
2023-06-17T07:27:26.098Z,96281.50
2023-06-17T07:29:53.431Z,96299.78
2023-06-17T07:32:20.480Z,96306.22
2023-06-17T07:34:50.049Z,96290.16
2023-06-17T07:37:17.147Z,96298.06
2023-06-17T07:39:47.538Z,96307.56
2023-06-17T07:42:17.917Z,96304.16
2023-06-17T07:44:47.724Z,96305.03
2023-06-17T07:47:14.798Z,96296.47
2023-06-17T07:49:41.840Z,96259.81
2023-06-17T07:52:08.902Z,96289.22
2023-06-17T07:54:36.950Z,96283.94
2023-06-17T07:57:04.854Z,96297.25
2023-06-17T07:59:32.331Z,96294.06
2023-06-17T08:01:59.700Z,96288.25
2023-06-17T08:04:26.941Z,96290.56
2023-06-17T08:06:53.967Z,96302.41
2023-06-17T08:09:21.154Z,96297.75
2023-06-17T08:11:49.184Z,96292.09
2023-06-17T08:14:17.533Z,96301.16
2023-06-17T08:16:45.072Z,96313.91
2023-06-17T08:19:13.094Z,96283.34
2023-06-17T08:21:43.375Z,96289.31
2023-06-17T08:24:19.600Z,96280.75
2023-06-17T08:26:47.153Z,96279.50
2023-06-17T08:29:15.125Z,96279.38
2023-06-17T08:31:43.818Z,96289.66
2023-06-17T08:34:12.281Z,96294.94
2023-06-17T08:36:50.918Z,96302.59
2023-06-17T08:39:20.306Z,96293.84
2023-06-17T08:41:49.847Z,96298.94
2023-06-17T08:44:17.584Z,96303.09
2023-06-17T08:46:46.165Z,96298.66
2023-06-17T08:49:14.409Z,96280.16
2023-06-17T08:51:42.144Z,96297.00
2023-06-17T08:54:10.831Z,96298.66
2023-06-17T08:56:38.476Z,96268.28
2023-06-17T08:59:06.046Z,96271.91
2023-06-17T09:01:34.017Z,96284.63
2023-06-17T09:04:03.135Z,96288.59
2023-06-17T09:06:31.244Z,96267.41
2023-06-17T09:08:59.131Z,96274.06
2023-06-17T09:11:31.529Z,96281.00
2023-06-17T09:27:31.524Z,96293.72
2023-06-17T09:30:10.668Z,96302.31
2023-06-17T09:32:44.166Z,96296.03
2023-06-17T09:35:18.540Z,96299.81
2023-06-17T09:40:32.656Z,96284.13
2023-06-17T09:43:20.951Z,96296.22
2023-06-17T09:45:56.384Z,96297.22
2023-06-17T09:48:26.120Z,96294.88
2023-06-17T09:50:57.683Z,96304.13
2023-06-17T09:53:30.563Z,96270.44
2023-06-17T09:56:00.014Z,96298.84
2023-06-17T09:58:34.141Z,96291.06
2023-06-17T10:01:07.162Z,96301.69
2023-06-17T10:03:35.304Z,96306.91
2023-06-17T10:06:10.023Z,96299.88
2023-06-17T10:08:49.913Z,96296.25
2023-06-17T10:11:21.459Z,96308.78
2023-06-17T10:14:00.521Z,96309.31
2023-06-17T10:16:32.116Z,96308.28
2023-06-17T10:19:02.357Z,96282.38
2023-06-17T10:21:30.729Z,96296.03
2023-06-17T10:24:01.245Z,96303.97
2023-06-17T10:26:30.087Z,96295.75
2023-06-17T10:29:08.437Z,96301.38
2023-06-17T10:31:39.352Z,96291.31
2023-06-17T10:34:09.348Z,96291.00
2023-06-17T10:36:37.228Z,96280.41
2023-06-17T10:39:13.164Z,96277.63
2023-06-17T10:41:40.158Z,96287.69
2023-06-17T10:44:29.327Z,96288.56
2023-06-17T10:46:57.685Z,96285.75
2023-06-17T10:49:25.031Z,96275.13
2023-06-17T10:51:58.850Z,96288.84
2023-06-17T10:54:34.040Z,96275.41
2023-06-17T10:57:03.041Z,96268.28
2023-06-17T10:59:33.573Z,96268.81
2023-06-17T11:02:08.424Z,96268.78
2023-06-17T11:04:38.211Z,96273.03
2023-06-17T11:07:06.127Z,96254.50
2023-06-17T11:09:34.683Z,96269.59
2023-06-17T11:12:03.603Z,96253.56
2023-06-17T11:14:32.772Z,96264.34
2023-06-17T11:16:59.933Z,96253.56
2023-06-17T11:19:27.161Z,96243.28
2023-06-17T11:22:08.517Z,96246.22
2023-06-17T11:24:36.889Z,96244.16
2023-06-17T11:27:07.089Z,96238.50
2023-06-17T11:29:34.359Z,96242.94
2023-06-17T11:32:03.190Z,96245.53
2023-06-17T11:34:33.258Z,96255.28
2023-06-17T11:37:03.222Z,96239.38
2023-06-17T11:39:32.135Z,96238.47
2023-06-17T11:42:04.023Z,96254.97
2023-06-17T11:44:36.026Z,96254.91
2023-06-17T11:47:08.285Z,96257.81
2023-06-17T11:49:36.604Z,96252.88
2023-06-17T11:52:12.289Z,96257.56
2023-06-17T11:54:51.837Z,96269.28
2023-06-17T11:57:23.852Z,96259.88
2023-06-17T11:59:52.108Z,96254.75
2023-06-17T12:02:20.265Z,96273.41
2023-06-17T12:04:48.034Z,96268.97
2023-06-17T12:07:15.668Z,96249.81
2023-06-17T12:09:54.483Z,96256.41
2023-06-17T12:12:37.024Z,96259.88
2023-06-17T12:15:15.086Z,96256.72
2023-06-17T12:17:44.186Z,96253.91
2023-06-17T12:20:19.226Z,96236.88
2023-06-17T12:22:47.985Z,96250.44
2023-06-17T12:25:15.233Z,96252.16
2023-06-17T12:27:44.070Z,96246.53
2023-06-17T12:30:15.216Z,96252.00
2023-06-17T12:32:44.151Z,96259.91
2023-06-17T12:35:13.160Z,96255.09
2023-06-17T12:37:42.484Z,96257.91
2023-06-17T12:40:10.558Z,96254.25
2023-06-17T12:42:38.036Z,96249.78
2023-06-17T12:45:06.822Z,96223.19
2023-06-17T12:47:34.109Z,96253.19
2023-06-17T12:50:01.457Z,96254.38
2023-06-17T12:52:31.373Z,96242.81
2023-06-17T12:55:02.192Z,96249.94
2023-06-17T12:57:32.962Z,96239.72
2023-06-17T13:00:01.357Z,96253.31
2023-06-17T13:05:55.016Z,96272.25
2023-06-17T13:08:22.167Z,96256.97
2023-06-17T13:10:49.480Z,96270.41
2023-06-17T13:13:16.710Z,96267.50
2023-06-17T13:15:44.076Z,96257.38
2023-06-17T13:18:11.305Z,96264.91
2023-06-17T13:20:38.355Z,96269.56
2023-06-17T13:23:05.708Z,96282.78
2023-06-17T13:25:32.897Z,96277.13
2023-06-17T13:28:05.889Z,96269.00
2023-06-17T13:30:33.266Z,96271.31
2023-06-17T13:33:00.314Z,96272.06
2023-06-17T13:35:27.330Z,96253.50
2023-06-17T13:37:56.104Z,96259.28
2023-06-17T13:40:23.952Z,96265.69
2023-06-17T13:42:51.308Z,96265.41
2023-06-17T13:45:18.637Z,96248.03
2023-06-17T13:47:46.295Z,96241.31
2023-06-17T13:50:13.453Z,96269.44
2023-06-17T13:52:40.473Z,96246.63
2023-06-17T13:55:08.266Z,96264.84
2023-06-17T13:57:35.285Z,96265.66
2023-06-17T14:00:02.420Z,96267.09
2023-06-17T14:02:33.541Z,96278.88
2023-06-17T14:05:02.067Z,96250.09
2023-06-17T14:07:30.902Z,96252.78
2023-06-17T14:09:58.285Z,96258.53
2023-06-17T14:12:25.594Z,96269.47
2023-06-17T14:14:53.637Z,96234.63
2023-06-17T14:17:21.104Z,96274.13
2023-06-17T14:19:48.436Z,96274.47
2023-06-17T14:22:15.653Z,96254.28
2023-06-17T14:24:43.022Z,96269.47
2023-06-17T14:27:34.575Z,96272.63
2023-06-17T14:30:03.476Z,96264.75
2023-06-17T14:32:34.183Z,96273.31
2023-06-17T14:35:01.612Z,96258.84
2023-06-17T14:37:33.662Z,96251.56
2023-06-17T14:40:00.880Z,96267.31
2023-06-17T14:42:29.361Z,96255.31
2023-06-17T14:44:56.460Z,96265.13
2023-06-17T14:47:24.242Z,96253.34
2023-06-17T14:49:51.329Z,96264.91
2023-06-17T14:52:18.569Z,96268.91
2023-06-17T14:54:45.890Z,96271.47
2023-06-17T14:57:13.645Z,96266.69
2023-06-17T14:59:41.156Z,96267.91
2023-06-17T15:02:36.734Z,96280.06
2023-06-17T15:05:03.827Z,96269.81
2023-06-17T15:07:31.019Z,96272.94
2023-06-17T15:09:58.024Z,96264.84
2023-06-17T15:12:25.039Z,96278.31
2023-06-17T15:14:54.672Z,96272.97
2023-06-17T15:17:22.054Z,96275.66
2023-06-17T15:19:49.128Z,96280.53
2023-06-17T15:22:16.313Z,96282.50
2023-06-17T15:24:43.369Z,96280.34
2023-06-17T15:27:10.554Z,96285.56
2023-06-17T15:29:37.642Z,96285.25
2023-06-17T15:32:05.056Z,96284.19
2023-06-17T15:34:32.060Z,96280.63
2023-06-17T15:36:59.052Z,96274.72
2023-06-17T15:39:28.955Z,96290.41
2023-06-17T15:41:56.175Z,96297.16
2023-06-17T15:44:23.318Z,96298.75
2023-06-17T15:46:51.226Z,96298.13
2023-06-17T15:49:18.972Z,96300.47
2023-06-17T15:51:46.036Z,96304.44
2023-06-17T15:54:14.359Z,96303.44
2023-06-17T15:56:47.143Z,96301.59
2023-06-17T15:59:14.520Z,96300.50
2023-06-17T16:01:41.616Z,96313.91
2023-06-17T16:04:34.310Z,96302.72
2023-06-17T16:07:03.962Z,96315.19
2023-06-17T16:09:35.273Z,96313.28
2023-06-17T16:12:04.100Z,96316.47
2023-06-17T16:14:36.922Z,96316.59
2023-06-17T16:17:06.841Z,96314.63
2023-06-17T16:19:34.329Z,96331.50
2023-06-17T16:22:03.328Z,96321.97
2023-06-17T16:24:31.719Z,96329.53
2023-06-17T16:26:59.702Z,96336.75
2023-06-17T16:29:26.826Z,96335.84
2023-06-17T16:31:53.876Z,96341.59
2023-06-17T16:34:21.075Z,96345.72
2023-06-17T16:36:48.089Z,96349.75
2023-06-17T16:39:15.170Z,96338.13
2023-06-17T16:41:42.289Z,96345.78
2023-06-17T16:44:09.874Z,96366.63
2023-06-17T16:46:37.309Z,96353.31
2023-06-17T16:49:04.546Z,96353.34
2023-06-17T16:51:32.511Z,96353.19
2023-06-17T16:54:01.901Z,96344.38
2023-06-17T16:56:31.108Z,96353.63
2023-06-17T16:58:58.471Z,96336.97
2023-06-17T17:01:25.768Z,96335.31
2023-06-17T17:03:52.901Z,96340.75
2023-06-17T17:06:19.976Z,96338.22
2023-06-17T17:08:51.027Z,96353.84
2023-06-17T17:11:18.085Z,96357.06
2023-06-17T17:13:49.259Z,96361.47
2023-06-17T17:16:17.548Z,96361.88
2023-06-17T17:18:44.690Z,96360.69
2023-06-17T17:21:11.843Z,96331.53
2023-06-17T17:23:41.688Z,96386.50
2023-06-17T17:26:10.287Z,96385.13
2023-06-17T17:28:37.465Z,96368.19
2023-06-17T17:31:04.521Z,96389.56
2023-06-17T17:33:33.927Z,96380.06
2023-06-17T17:36:01.691Z,96377.94
2023-06-17T17:38:28.752Z,96371.00
2023-06-17T17:40:55.783Z,96359.50
2023-06-17T17:43:22.814Z,96370.25
2023-06-17T17:45:49.907Z,96324.84
2023-06-17T17:48:17.354Z,96361.28
2023-06-17T17:50:44.528Z,96359.22
2023-06-17T17:53:11.938Z,96359.13
2023-06-17T17:55:39.024Z,96354.25
2023-06-17T17:58:06.066Z,96374.69
2023-06-17T18:00:33.195Z,96372.88
2023-06-17T18:03:00.545Z,96374.63
2023-06-17T18:05:27.624Z,96357.75
2023-06-17T18:07:54.724Z,96367.13
2023-06-17T18:10:22.140Z,96368.25
2023-06-17T18:12:49.504Z,96368.78
2023-06-17T18:15:16.678Z,96383.09
2023-06-17T18:17:43.716Z,96379.91
2023-06-17T18:20:11.228Z,96403.25
2023-06-17T18:22:38.792Z,96392.25
2023-06-17T18:25:06.743Z,96400.91
2023-06-17T18:27:36.272Z,96410.88
2023-06-17T18:30:05.049Z,96394.59
2023-06-17T18:32:36.858Z,96395.28
2023-06-17T18:35:04.078Z,96420.38
2023-06-17T18:37:33.112Z,96425.25
2023-06-17T18:40:02.516Z,96417.88
2023-06-17T18:42:33.733Z,96436.41
2023-06-17T18:45:01.346Z,96419.03
2023-06-17T18:47:32.235Z,96417.13
2023-06-17T18:50:00.140Z,96398.06
2023-06-17T18:52:27.562Z,96438.97
2023-06-17T18:54:54.897Z,96434.56
2023-06-17T18:57:23.488Z,96443.94
2023-06-17T18:59:52.569Z,96429.44
2023-06-17T19:02:21.409Z,96456.28
2023-06-17T19:04:48.575Z,96453.34
2023-06-17T19:07:15.741Z,96463.44
2023-06-17T19:09:42.782Z,96452.81
2023-06-17T19:12:10.464Z,96476.31
2023-06-17T19:14:37.886Z,96472.63
2023-06-17T19:17:05.497Z,96483.25
2023-06-17T19:19:32.730Z,96480.34
2023-06-17T19:21:59.866Z,96446.75
2023-06-17T19:24:26.994Z,96470.69
2023-06-17T19:26:54.128Z,96465.28
2023-06-17T19:29:21.395Z,96461.97
2023-06-17T19:31:48.601Z,96476.06
2023-06-17T19:34:15.653Z,96493.63
2023-06-17T19:36:42.739Z,96492.25
2023-06-17T19:39:09.758Z,96486.44
2023-06-17T19:41:37.174Z,96499.44
2023-06-17T19:44:06.156Z,96478.56
2023-06-17T19:46:33.725Z,96472.59
2023-06-17T19:49:00.887Z,96463.59
2023-06-17T19:51:28.615Z,96464.63
2023-06-17T19:53:57.029Z,96471.09
2023-06-17T19:56:24.867Z,96481.03
2023-06-17T19:58:52.085Z,96484.66
2023-06-17T20:01:19.979Z,96475.22
2023-06-17T20:03:47.268Z,96473.06
2023-06-17T20:06:14.892Z,96472.75
2023-06-17T20:08:42.399Z,96444.00
2023-06-17T20:11:09.573Z,96463.78
2023-06-17T20:13:36.881Z,96444.56
2023-06-17T20:16:04.763Z,96475.94
2023-06-17T20:18:31.849Z,96473.00
2023-06-17T20:20:58.901Z,96472.03
2023-06-17T20:23:27.966Z,96477.06
2023-06-17T20:25:55.506Z,96474.97
2023-06-17T20:28:22.480Z,96479.53
2023-06-17T20:30:49.564Z,96482.44
2023-06-17T20:33:16.637Z,96496.78
2023-06-17T20:35:43.840Z,96495.97
2023-06-17T20:38:10.880Z,96506.47
2023-06-17T20:40:38.259Z,96488.25
2023-06-17T20:43:05.200Z,96490.47
2023-06-17T20:45:32.484Z,96493.34
2023-06-17T20:47:59.760Z,96493.22
2023-06-17T20:50:27.956Z,96497.06
2023-06-17T20:52:57.409Z,96494.34
2023-06-17T20:55:29.999Z,96453.13
2023-06-17T20:57:57.445Z,96491.28
2023-06-17T21:00:24.614Z,96479.41
2023-06-17T21:02:51.983Z,96475.81
2023-06-17T21:05:19.283Z,96471.78
2023-06-17T21:07:46.523Z,96462.13
2023-06-17T21:10:14.319Z,96464.75
2023-06-17T21:12:41.650Z,96445.50
2023-06-17T21:15:09.321Z,96467.78
2023-06-17T21:17:36.421Z,96459.75
2023-06-17T21:20:03.954Z,96411.50
2023-06-17T21:22:31.332Z,96455.03
2023-06-17T21:24:58.403Z,96454.22
2023-06-17T21:27:25.495Z,96456.44
2023-06-17T21:29:52.960Z,96444.56
2023-06-17T21:32:20.100Z,96445.78
2023-06-17T21:34:47.672Z,96438.31
2023-06-17T21:37:14.870Z,96448.94
2023-06-17T21:39:42.324Z,96443.41
2023-06-17T21:42:09.443Z,96440.22
2023-06-17T21:44:36.730Z,96433.22
2023-06-17T21:47:04.171Z,96425.16
2023-06-17T21:49:31.398Z,96401.41
2023-06-17T21:51:58.472Z,96400.56
2023-06-17T21:54:25.549Z,96399.31
2023-06-17T21:56:52.543Z,96402.50
2023-06-17T21:59:19.538Z,96390.91
2023-06-17T22:01:47.953Z,96394.22
2023-06-17T22:04:14.991Z,96362.16
2023-06-17T22:06:42.128Z,96397.09
2023-06-17T22:09:09.181Z,96363.25
2023-06-17T22:11:36.213Z,96396.81
2023-06-17T22:14:03.358Z,96412.16
2023-06-17T22:16:30.565Z,96414.50
2023-06-17T22:18:57.692Z,96394.47
2023-06-17T22:21:24.760Z,96401.41
2023-06-17T22:23:51.795Z,96406.94
2023-06-17T22:26:18.947Z,96404.81
2023-06-17T22:28:46.079Z,96397.09
2023-06-17T22:31:13.117Z,96403.31
2023-06-17T22:33:40.157Z,96392.53
2023-06-17T22:36:07.420Z,96398.06
2023-06-17T22:38:34.410Z,96412.84
2023-06-17T22:41:01.629Z,96419.88
2023-06-17T22:43:29.163Z,96412.53
2023-06-17T22:45:56.163Z,96411.16
2023-06-17T22:48:23.172Z,96406.59
2023-06-17T22:50:50.577Z,96415.44
2023-06-17T22:53:17.844Z,96415.16
2023-06-17T22:55:44.846Z,96422.94
2023-06-17T22:58:11.909Z,96426.25
2023-06-17T23:00:41.560Z,96426.50
2023-06-17T23:03:09.222Z,96417.94
2023-06-17T23:05:36.326Z,96383.38
2023-06-17T23:08:04.634Z,96425.69
2023-06-17T23:10:31.768Z,96425.00
2023-06-17T23:12:58.802Z,96432.69
2023-06-17T23:15:25.827Z,96434.47
2023-06-17T23:17:52.939Z,96428.09
2023-06-17T23:20:20.235Z,96445.09
2023-06-17T23:22:47.492Z,96443.81
2023-06-17T23:25:15.630Z,96443.09
2023-06-17T23:27:44.542Z,96442.41
2023-06-17T23:30:14.809Z,96445.22
2023-06-17T23:32:42.622Z,96435.72
2023-06-17T23:35:10.283Z,96438.41
2023-06-17T23:37:37.535Z,96434.22
2023-06-17T23:40:05.182Z,96425.56
2023-06-17T23:42:32.725Z,96438.75
2023-06-17T23:45:00.598Z,96434.41
2023-06-17T23:47:27.793Z,96426.31
2023-06-17T23:49:55.064Z,96430.22
2023-06-17T23:52:22.174Z,96429.59
2023-06-17T23:54:49.249Z,96446.94
